Time;durP1;ratioP1;P1;durP2;ratioP2;P2;SDS_P1;SDS_P2;PMS_P1;PMS_P2;Temp;Humidity;BMP_temperature;BMP_pressure;BME280_temperature;BME280_humidity;BME280_pressure;Samples;Min_cycle;Max_cycle;Signal;HPM_P1;HPM_P2
2023/03/05 00:02:06;;;;;;;14.98;9.68;;;;;;;5.43;100.00;100782.28;4904939;29;20465;-92
2023/03/05 00:04:35;;;;;;;16.92;10.32;;;;;;;5.44;100.00;100777.88;4910592;29;20128;-89
2023/03/05 00:07:20;;;;;;;14.77;9.35;;;;;;;5.29;100.00;100758.91;4910149;29;21368;-90
2023/03/05 00:10:05;;;;;;;14.38;8.75;;;;;;;5.43;100.00;100774.38;4907071;29;20053;-90
2023/03/05 00:12:46;;;;;;;15.95;9.18;;;;;;;5.14;100.00;100725.09;4906345;29;20044;-91
2023/03/05 00:15:27;;;;;;;;;;;;;;;5.38;100.00;100770.97;4916450;29;20123;-91
2023/03/05 00:18:26;;;;;;;15.80;8.10;;;;;;;5.14;100.00;100730.31;4911876;29;20483;-91
2023/03/05 00:21:36;;;;;;;17.98;7.80;;;;;;;5.34;100.00;100771.97;4913012;29;20095;-91
2023/03/05 00:24:21;;;;;;;14.80;7.38;;;;;;;4.93;100.00;100699.22;4910653;29;20056;-91
2023/03/05 00:26:48;;;;;;;13.38;7.38;;;;;;;4.94;100.00;100714.09;4920255;29;20045;-91
2023/03/05 00:29:23;;;;;;;15.35;6.88;;;;;;;5.01;100.00;100720.97;4920540;29;20080;-91
2023/03/05 00:32:05;;;;;;;14.82;7.25;;;;;;;5.24;100.00;100770.38;4916556;29;20044;-91
2023/03/05 00:35:06;;;;;;;14.32;7.65;;;;;;;5.06;100.00;100754.97;4926112;29;20051;-92
2023/03/05 00:37:51;;;;;;;15.93;6.88;;;;;;;4.73;100.00;100689.09;4930413;29;20056;-91
2023/03/05 00:40:25;;;;;;;10.45;6.30;;;;;;;4.62;99.62;100666.59;4902591;29;20044;-93
2023/03/05 00:43:16;;;;;;;14.73;7.00;;;;;;;5.04;99.40;100748.88;4936412;29;20091;-91
2023/03/05 00:46:03;;;;;;;14.07;5.95;;;;;;;5.18;97.48;100774.00;4933458;29;20405;-92
2023/03/05 00:48:47;;;;;;;13.52;6.43;;;;;;;5.09;97.69;100744.44;4904969;29;20052;-93
2023/03/05 00:51:24;;;;;;;15.13;6.97;;;;;;;4.64;97.80;100680.56;4932982;29;20044;-91
2023/03/05 00:54:16;;;;;;;11.50;6.40;;;;;;;4.54;98.26;100649.25;4924638;29;20052;-91
2023/03/05 00:57:15;;;;;;;12.75;6.68;;;;;;;5.15;99.36;100763.56;4923653;29;20455;-92
2023/03/05 01:00:13;;;;;;;14.10;6.75;;;;;;;4.58;100.00;100665.78;4917463;29;20104;-91
2023/03/05 01:03:01;;;;;;;17.77;6.90;;;;;;;5.00;100.00;100732.34;4912631;29;20129;-91
2023/03/05 01:05:38;;;;;;;16.70;7.22;;;;;;;5.12;100.00;100753.13;4914630;29;20088;-92
2023/03/05 01:08:20;;;;;;;13.02;7.28;;;;;;;5.11;100.00;100756.63;4917191;29;20091;-92
2023/03/05 01:11:01;;;;;;;12.65;6.88;;;;;;;5.08;100.00;100753.19;4920615;29;20067;-93
2023/03/05 01:13:59;;;;;;;12.70;5.82;;;;;;;4.94;98.02;100725.44;4929477;29;20104;-90
2023/03/05 01:16:42;;;;;;;11.27;5.85;;;;;;;4.80;98.29;100710.84;4929343;29;20051;-91
2023/03/05 01:19:30;;;;;;;10.43;5.60;;;;;;;4.73;97.51;100685.63;4906363;29;20056;-91
2023/03/05 01:22:31;;;;;;;12.02;5.30;;;;;;;5.03;96.49;100737.56;4948506;28;20039;-91
2023/03/05 01:25:13;;;;;;;12.00;4.50;;;;;;;4.76;96.00;100686.44;4935842;28;20036;-90
2023/03/05 01:27:56;;;;;;;11.55;5.65;;;;;;;4.76;96.26;100686.44;4919820;28;20039;-92
2023/03/05 01:30:43;;;;;;;10.45;4.55;;;;;;;4.81;96.62;100694.22;4933542;29;20028;-91
2023/03/05 01:33:28;;;;;;;11.57;4.70;;;;;;;4.99;96.19;100730.63;4924278;29;20048;-91
2023/03/05 01:36:15;;;;;;;11.65;5.03;;;;;;;4.97;96.38;100726.28;4922052;29;20067;-90
2023/03/05 01:39:05;;;;;;;15.52;4.90;;;;;;;4.76;95.95;100691.69;4921778;29;20091;-88
2023/03/05 01:42:09;;;;;;;9.07;4.63;;;;;;;4.94;96.21;100714.09;4926428;29;20059;-89
2023/03/05 01:44:59;;;;;;;11.18;4.53;;;;;;;4.91;95.93;100714.13;4908299;29;20044;-91
2023/03/05 01:47:26;;;;;;;9.90;4.55;;;;;;;4.84;96.26;100709.91;4926003;29;20048;-90
2023/03/05 01:50:13;;;;;;;8.68;4.65;;;;;;;4.70;94.81;100676.06;4939022;29;20378;-91
2023/03/05 01:53:05;;;;;;;7.90;3.72;;;;;;;4.98;94.78;100715.78;4917500;29;20068;-92
2023/03/05 01:55:36;;;;;;;7.93;4.15;;;;;;;4.98;94.17;100712.28;4926046;29;20051;-90
2023/03/05 01:58:12;;;;;;;12.15;5.03;;;;;;;4.70;93.71;100672.59;4923306;29;20079;-90
2023/03/05 02:01:06;;;;;;;13.13;4.60;;;;;;;4.83;93.97;100698.56;4922927;29;20135;-90
2023/03/05 02:03:36;;;;;;;12.10;4.13;;;;;;;4.73;93.64;100680.38;4918719;29;20070;-90
2023/03/05 02:06:24;;;;;;;10.88;4.78;;;;;;;4.49;93.79;100637.97;4924308;29;20385;-89
2023/03/05 02:09:25;;;;;;;11.05;4.38;;;;;;;4.49;93.28;100639.75;4924412;29;20084;-92
2023/03/05 02:12:27;;;;;;;14.32;4.80;;;;;;;4.73;93.57;100680.38;4931594;29;20040;-91
2023/03/05 02:15:14;;;;;;;11.40;4.60;;;;;;;4.64;92.29;100655.19;4929978;29;20391;-91
2023/03/05 02:17:45;;;;;;;11.55;5.05;;;;;;;4.67;89.89;100659.53;4914017;29;20119;-90
2023/03/05 02:20:27;;;;;;;10.30;4.90;;;;;;;4.50;90.06;100631.84;4927994;29;20055;-90
2023/03/05 02:22:57;;;;;;;12.13;4.88;;;;;;;4.85;88.53;100683.66;4935999;29;20055;-92
2023/03/05 02:25:28;;;;;;;7.30;4.53;;;;;;;4.78;87.46;100668.03;4936827;28;20032;-91
2023/03/05 02:27:58;;;;;;;10.82;4.55;;;;;;;4.86;86.07;100676.66;4935866;28;20103;-91
2023/03/05 02:30:34;;;;;;;8.57;4.55;;;;;;;4.85;85.79;100674.91;4939491;28;20033;-91
2023/03/05 02:33:06;;;;;;;14.85;4.90;;;;;;;4.88;85.17;100669.59;4920361;29;20058;-91
2023/03/05 02:36:14;;;;;;;12.13;5.07;;;;;;;4.88;83.49;100669.59;4614388;27;15769927;-92
2023/03/05 02:38:57;;;;;;;9.15;4.30;;;;;;;4.56;83.53;100610.72;5136098;27;20066;-91
2023/03/05 02:41:33;;;;;;;11.95;5.32;;;;;;;4.73;83.30;100633.16;5141525;27;20043;-91
2023/03/05 02:44:18;;;;;;;13.05;5.45;;;;;;;4.55;83.48;100608.16;5154051;27;20038;-91
2023/03/05 02:46:50;;;;;;;12.95;5.78;;;;;;;4.89;84.40;100666.94;5144167;27;20547;-93
2023/03/05 02:49:22;;;;;;;13.70;5.82;;;;;;;4.86;86.74;100669.66;5142526;27;20069;-90
2023/03/05 02:52:10;;;;;;;13.45;6.07;;;;;;;4.57;88.87;100619.47;5168634;27;20027;-89
2023/03/05 02:54:39;;;;;;;11.38;5.78;;;;;;;4.77;89.81;100663.69;5161576;27;20060;-90
2023/03/05 02:57:19;;;;;;;13.93;5.93;;;;;;;4.12;91.65;100550.41;5173020;27;20035;-90
2023/03/05 02:59:55;;;;;;;17.87;5.90;;;;;;;4.47;93.08;100615.28;5151765;27;20058;-91
2023/03/05 03:02:29;;;;;;;13.85;5.75;;;;;;;4.28;93.73;100591.16;5177381;27;20039;-91
2023/03/05 03:05:40;;;;;;;11.73;6.32;;;;;;;4.31;93.47;100591.13;5164682;27;20151;-91
2023/03/05 03:08:38;;;;;;;12.43;5.90;;;;;;;4.31;92.37;100583.25;5156510;27;20061;-92
2023/03/05 03:11:12;;;;;;;12.77;6.63;;;;;;;4.23;91.10;100565.06;5138670;27;20103;-92
2023/03/05 03:13:55;;;;;;;16.15;6.90;;;;;;;4.06;90.51;100530.44;5133559;27;20126;-92
2023/03/05 03:16:36;;;;;;;13.25;6.53;;;;;;;4.42;90.79;100594.41;5163727;27;20043;-91
2023/03/05 03:19:14;;;;;;;13.95;6.20;;;;;;;4.38;91.30;100589.25;5175332;27;20073;-90
2023/03/05 03:21:58;;;;;;;12.75;6.40;;;;;;;4.70;90.59;100644.59;5150320;27;20043;-89
2023/03/05 03:24:34;;;;;;;12.85;6.07;;;;;;;4.49;90.73;100605.66;5163828;27;20031;-90
2023/03/05 03:27:07;;;;;;;10.32;5.90;;;;;;;4.67;91.31;100641.16;5176213;27;20098;-90
2023/03/05 03:29:35;;;;;;;14.27;6.45;;;;;;;4.44;91.51;100605.72;5148756;27;20035;-90
2023/03/05 03:32:08;;;;;;;13.30;6.50;;;;;;;4.67;91.55;100634.16;5159408;27;20039;-90
2023/03/05 03:34:39;;;;;;;13.95;6.85;;;;;;;4.55;91.75;100611.66;5136404;27;20050;-90
2023/03/05 03:37:20;;;;;;;11.98;6.63;;;;;;;4.67;91.85;100636.78;5151420;27;20106;-91
2023/03/05 03:40:01;;;;;;;;;;;;;;;4.65;91.99;100638.56;5165816;27;20027;-90
2023/03/05 03:42:30;;;;;;;12.55;7.10;;;;;;;4.22;92.88;100565.09;5165635;27;19927;-91
2023/03/05 03:45:14;;;;;;;13.20;6.72;;;;;;;4.30;93.14;100578.91;5149777;27;20030;-90
2023/03/05 03:47:43;;;;;;;;;;;;;;;4.65;93.46;100637.69;5149981;27;20062;-92
2023/03/05 03:50:14;;;;;;;12.30;6.57;;;;;;;4.34;93.61;100582.34;5157714;27;19915;-92
2023/03/05 03:52:51;;;;;;;11.13;6.13;;;;;;;4.53;94.26;100618.69;5123659;27;20122;-91
2023/03/05 03:55:23;;;;;;;13.73;5.97;;;;;;;4.34;95.25;100588.44;5157893;27;20069;-90
2023/03/05 03:57:55;;;;;;;17.88;6.22;;;;;;;4.29;95.45;100586.78;5144519;27;20099;-91
2023/03/05 04:00:41;;;;;;;12.32;6.32;;;;;;;4.15;95.41;100561.69;5098668;27;20122;-92
2023/03/05 04:03:24;;;;;;;13.48;5.75;;;;;;;4.41;96.02;100608.41;5131187;27;20043;-92
2023/03/05 04:05:54;;;;;;;10.02;6.22;;;;;;;4.16;95.37;100563.44;5147220;27;20064;-91
2023/03/05 04:08:24;;;;;;;12.50;5.78;;;;;;;4.32;96.14;100586.75;5138700;27;20044;-92
2023/03/05 04:11:14;;;;;;;11.52;5.32;;;;;;;4.14;95.43;100567.84;5117025;27;20035;-91
2023/03/05 04:13:57;;;;;;;12.57;5.15;;;;;;;4.09;96.05;100556.56;5143180;27;20456;-92
2023/03/05 04:16:30;;;;;;;9.65;4.78;;;;;;;3.95;95.19;100515.78;5143803;27;20039;-92
2023/03/05 04:19:00;;;;;;;12.13;5.18;;;;;;;4.50;95.24;100621.34;5137821;27;20104;-91
2023/03/05 04:21:36;;;;;;;11.90;4.20;;;;;;;4.34;94.25;100595.44;5145973;27;20050;-91
2023/03/05 04:24:22;;;;;;;9.60;4.28;;;;;;;4.47;94.45;100610.91;5142944;27;20045;-92
2023/03/05 04:27:01;;;;;;;11.07;4.07;;;;;;;4.09;93.91;100553.94;5149861;27;20372;-91
2023/03/05 04:29:32;;;;;;;14.00;4.55;;;;;;;4.16;93.20;100565.19;5157527;27;20034;-91
2023/03/05 04:32:21;;;;;;;10.02;3.95;;;;;;;4.42;93.44;100620.63;5148356;27;20097;-92
2023/03/05 04:34:58;;;;;;;9.88;4.60;;;;;;;4.28;93.77;100593.78;5140290;27;20061;-91
2023/03/05 04:37:29;;;;;;;11.15;4.53;;;;;;;4.20;93.74;100574.72;5139808;27;20328;-90
2023/03/05 04:40:12;;;;;;;10.82;4.30;;;;;;;4.39;93.05;100611.97;5136586;27;20043;-91
2023/03/05 04:43:22;;;;;;;6.23;3.07;;;;;;;4.26;92.11;100597.31;5134776;27;20047;-93
2023/03/05 04:46:10;;;;;;;8.90;3.20;;;;;;;4.22;88.26;100593.91;5135672;27;20039;-92
2023/03/05 04:49:06;;;;;;;8.45;2.88;;;;;;;4.11;87.46;100586.22;5131215;27;20529;-90
2023/03/05 04:51:57;;;;;;;6.65;2.45;;;;;;;3.72;85.67;100514.44;5135547;27;20090;-90
2023/03/05 04:54:40;;;;;;;7.47;2.35;;;;;;;4.01;83.44;100568.06;5139445;27;20119;-90
2023/03/05 04:57:25;;;;;;;3.22;1.65;;;;;;;4.11;81.76;100578.34;5136874;27;20039;-91
2023/03/05 05:00:14;;;;;;;3.28;1.48;;;;;;;4.10;79.78;100594.09;5137082;27;20058;-91
2023/03/05 05:03:02;;;;;;;2.63;1.45;;;;;;;4.10;79.40;100589.72;5114088;27;20039;-89
2023/03/05 05:06:21;;;;;;;4.10;1.40;;;;;;;4.03;79.21;100576.78;5125933;27;20035;-92
2023/03/05 05:08:56;;;;;;;3.22;1.30;;;;;;;4.14;78.53;100593.16;5140789;27;20043;-89
2023/03/05 05:11:33;;;;;;;4.30;1.42;;;;;;;4.11;77.73;100591.47;5134477;27;20039;-89
2023/03/05 05:14:05;;;;;;;4.13;1.05;;;;;;;4.12;77.35;100595.81;5117685;27;20049;-89
2023/03/05 05:16:40;;;;;;;6.47;1.55;;;;;;;4.00;77.25;100572.44;5126992;27;20063;-90
2023/03/05 05:19:32;;;;;;;4.85;1.52;;;;;;;4.10;76.85;100586.25;5142261;27;20100;-89
2023/03/05 05:22:30;;;;;;;2.95;1.40;;;;;;;4.02;77.09;100570.69;5136360;27;20053;-91
2023/03/05 05:25:00;;;;;;;5.05;1.67;;;;;;;4.03;76.75;100566.28;5133671;27;20497;-90
2023/03/05 05:27:39;;;;;;;6.85;2.03;;;;;;;3.93;74.63;100539.41;5137406;27;20039;-89
2023/03/05 05:30:15;;;;;;;6.10;1.73;;;;;;;4.07;73.22;100562.75;5124587;27;20050;-91
2023/03/05 05:32:58;;;;;;;5.55;1.63;;;;;;;4.11;72.59;100565.25;5144424;27;20109;-92
2023/03/05 05:35:31;;;;;;;4.65;2.10;;;;;;;4.09;72.30;100550.47;5152269;27;20043;-91
2023/03/05 05:38:03;;;;;;;4.00;1.77;;;;;;;4.09;72.25;100535.59;5126767;27;20099;-91
2023/03/05 05:40:38;;;;;;;4.47;1.80;;;;;;;4.15;71.27;100539.88;5145929;27;20098;-88
2023/03/05 05:43:11;;;;;;;5.80;1.90;;;;;;;4.30;71.29;100562.31;5115522;27;20106;-88
2023/03/05 05:45:49;;;;;;;6.28;1.58;;;;;;;4.35;71.06;100563.97;5141144;27;20043;-89
2023/03/05 05:48:49;;;;;;;3.60;1.42;;;;;;;4.32;71.23;100563.16;5137513;27;20125;-91
2023/03/05 05:51:31;;;;;;;3.92;1.65;;;;;;;4.29;72.05;100558.81;5117202;27;20038;-90
2023/03/05 05:54:13;;;;;;;3.03;1.55;;;;;;;4.12;71.83;100532.06;5151215;27;20053;-90
2023/03/05 05:56:43;;;;;;;3.92;1.90;;;;;;;4.25;70.30;100562.38;5126294;27;20042;-92
2023/03/05 05:59:19;;;;;;;4.57;1.80;;;;;;;4.21;70.61;100564.22;5140631;27;20067;-92
2023/03/05 06:02:14;;;;;;;3.35;1.73;;;;;;;4.00;70.38;100520.03;5151417;27;20051;-90
2023/03/05 06:05:03;;;;;;;5.15;2.22;;;;;;;4.08;70.22;100525.16;5139109;27;20043;-89
2023/03/05 06:08:01;;;;;;;6.35;2.70;;;;;;;4.21;70.19;100555.50;5142607;27;20506;-89
2023/03/05 06:10:37;;;;;;;7.30;2.25;;;;;;;4.03;69.36;100530.47;5136402;27;20036;-91
2023/03/05 06:13:11;;;;;;;8.55;2.50;;;;;;;3.99;69.97;100512.22;5137280;27;20039;-90
2023/03/05 06:15:41;;;;;;;5.70;2.25;;;;;;;3.80;70.52;100488.97;5153856;27;20031;-89
2023/03/05 06:18:10;;;;;;;6.90;2.70;;;;;;;3.90;70.37;100509.78;5146112;27;20043;-88
2023/03/05 06:20:53;;;;;;;4.88;1.98;;;;;;;4.12;70.84;100555.63;5144922;27;20032;-89
2023/03/05 06:23:22;;;;;;;6.70;2.70;;;;;;;3.92;71.12;100521.09;5140069;27;20051;-89
2023/03/05 06:26:17;;;;;;;6.43;2.40;;;;;;;3.95;71.72;100521.88;5133813;27;20030;-89
2023/03/05 06:29:16;;;;;;;9.32;2.33;;;;;;;4.03;72.46;100545.34;5148817;27;20038;-87
2023/03/05 06:31:58;;;;;;;5.80;2.17;;;;;;;4.05;73.18;100549.66;5150347;27;20081;-90
2023/03/05 06:34:30;;;;;;;9.80;2.53;;;;;;;3.97;74.39;100534.94;5135183;27;20039;-89
2023/03/05 06:37:10;;;;;;;7.95;2.20;;;;;;;4.00;75.65;100541.00;5150993;27;20067;-89
2023/03/05 06:39:58;;;;;;;6.53;2.03;;;;;;;4.01;76.19;100547.13;5155479;27;20030;-89
2023/03/05 06:42:26;;;;;;;4.75;2.20;;;;;;;3.87;77.38;100523.78;5158763;27;20044;-90
2023/03/05 06:45:21;;;;;;;4.90;2.67;;;;;;;3.92;77.47;100532.44;5138090;27;20046;-90
2023/03/05 06:47:53;;;;;;;6.10;2.28;;;;;;;3.95;76.88;100547.22;5154517;27;20060;-90
2023/03/05 06:50:30;;;;;;;5.43;2.50;;;;;;;3.88;76.91;100525.50;5131809;28;20043;-89
2023/03/05 06:53:10;;;;;;;5.20;2.20;;;;;;;3.86;77.19;100522.91;5134804;27;20063;-89
2023/03/05 06:55:42;;;;;;;5.88;2.30;;;;;;;3.78;76.71;100509.06;5142134;27;20073;-90
2023/03/05 06:58:19;;;;;;;6.43;2.63;;;;;;;3.92;75.94;100521.09;5144306;27;20043;-90
2023/03/05 07:00:54;;;;;;;6.72;2.55;;;;;;;4.14;76.24;100561.72;5145921;27;20061;-89
2023/03/05 07:03:41;;;;;;;4.95;2.50;;;;;;;4.10;76.01;100547.81;5125322;28;20043;-89
2023/03/05 07:06:13;;;;;;;8.43;2.67;;;;;;;3.79;76.56;100494.22;5136138;28;20043;-89
2023/03/05 07:08:46;;;;;;;4.28;2.47;;;;;;;3.79;76.54;100495.09;5151483;27;20053;-93
2023/03/05 07:11:35;;;;;;;6.18;2.50;;;;;;;3.58;77.45;100453.59;5149386;27;20050;-94
2023/03/05 07:14:11;;;;;;;6.43;3.60;;;;;;;3.82;78.57;100500.28;5124675;28;20043;-92
2023/03/05 07:16:57;;;;;;;10.10;4.00;;;;;;;4.13;80.63;100560.00;5123652;27;20158;-90
2023/03/05 07:19:34;;;;;;;10.35;3.47;;;;;;;3.90;82.19;100528.13;5132336;27;20064;-89
2023/03/05 07:22:02;;;;;;;8.70;4.00;;;;;;;3.85;83.59;100526.44;5149509;27;20053;-90
2023/03/05 07:24:37;;;;;;;8.75;4.70;;;;;;;3.69;85.03;100503.16;5147767;27;20070;-90
2023/03/05 07:27:16;;;;;;;9.73;4.57;;;;;;;4.04;85.67;100558.41;5143029;27;20043;-88
2023/03/05 07:30:09;;;;;;;11.52;5.47;;;;;;;4.07;86.87;100557.50;5138263;27;20039;-90
2023/03/05 07:32:42;;;;;;;12.75;5.70;;;;;;;3.79;88.58;100516.03;5141727;27;20065;-90
2023/03/05 07:35:29;;;;;;;9.48;5.18;;;;;;;3.91;90.05;100532.47;5133209;27;20047;-89
2023/03/05 07:38:05;;;;;;;11.75;5.13;;;;;;;4.00;90.23;100542.75;5145699;27;20047;-89
2023/03/05 07:40:48;;;;;;;12.75;5.05;;;;;;;3.89;90.27;100527.25;5149787;27;20053;-91
2023/03/05 07:43:35;;;;;;;11.68;5.13;;;;;;;4.08;91.43;100556.59;5141601;27;20073;-89
2023/03/05 07:46:10;;;;;;;8.85;5.20;;;;;;;3.87;91.22;100521.16;5152511;27;20065;-89
2023/03/05 07:48:41;;;;;;;12.40;5.55;;;;;;;3.94;92.13;100543.72;5141535;27;20046;-89
2023/03/05 07:51:14;;;;;;;11.88;5.63;;;;;;;3.99;92.97;100554.13;5113304;27;20047;-92
2023/03/05 08:08:26;;;;;;;12.65;6.07;;;;;;;4.10;94.75;100555.66;5007573;28;20057;-93
2023/03/05 08:11:09;;;;;;;13.48;5.93;;;;;;;4.13;94.45;100552.13;5005872;28;20062;-94
2023/03/05 08:13:53;;;;;;;12.30;6.85;;;;;;;3.93;95.21;100518.44;5016072;28;20042;-94
2023/03/05 08:16:31;;;;;;;13.32;6.00;;;;;;;3.82;93.99;100489.81;5016358;28;20054;-94
2023/03/05 08:19:14;;;;;;;14.27;7.47;;;;;;;3.51;94.09;100433.63;5016299;28;20054;-94
2023/03/05 08:22:03;;;;;;;12.85;6.90;;;;;;;4.19;93.94;100546.78;5006024;28;20046;-95
2023/03/05 08:24:51;;;;;;;13.00;6.75;;;;;;;3.83;92.60;100481.06;5025080;28;20042;-94
2023/03/05 08:27:53;;;;;;;12.80;6.72;;;;;;;3.90;93.07;100497.53;5033495;28;20048;-93
2023/03/05 08:30:42;;;;;;;12.80;6.47;;;;;;;3.90;92.95;100494.06;5013547;28;20050;-96
2023/03/05 08:33:28;;;;;;;11.50;6.50;;;;;;;3.85;94.22;100486.28;5014843;28;20041;-93
2023/03/05 08:36:17;;;;;;;15.55;6.88;;;;;;;3.58;93.91;100434.41;5018370;28;20042;-93
2023/03/05 08:45:17;;;;;;;13.45;7.47;;;;;;;4.21;93.97;100535.38;5062874;28;20099;-93
2023/03/05 08:48:31;;;;;;;14.85;7.10;;;;;;;4.09;92.32;100500.69;5038767;28;20049;-93
2023/03/05 08:51:35;;;;;;;13.68;7.15;;;;;;;4.27;93.19;100523.91;5052999;28;20048;-93
2023/03/05 08:54:35;;;;;;;14.13;7.25;;;;;;;4.24;92.60;100513.50;5059147;28;20040;-92
2023/03/05 08:57:18;;;;;;;14.48;7.10;;;;;;;4.34;91.75;100522.91;5069971;28;20072;-92
2023/03/05 09:00:06;;;;;;;14.32;7.00;;;;;;;4.42;90.18;100523.59;5051278;28;20037;-95
2023/03/05 09:02:51;;;;;;;18.33;8.02;;;;;;;4.46;88.65;100520.03;5062528;28;20053;-92
2023/03/05 09:10:45;;;;;;;12.85;7.22;;;;;;;4.19;83.90;100458.53;5086018;28;20452;-94
2023/03/05 09:13:18;;;;;;;14.35;7.05;;;;;;;4.16;81.89;100452.50;5056199;28;20040;-92
2023/03/05 09:16:07;;;;;;;16.10;7.32;;;;;;;4.17;81.93;100456.84;5086575;28;20049;-93
2023/03/05 09:19:19;;;;;;;14.60;6.93;;;;;;;4.28;83.13;100483.69;5089366;28;20044;-91
2023/03/05 09:22:02;;;;;;;15.38;6.95;;;;;;;4.42;82.19;100515.72;5081927;28;20040;-93
2023/03/05 09:25:11;;;;;;;11.75;6.50;;;;;;;4.44;82.48;100506.09;5087746;28;20036;-92
2023/03/05 09:28:16;;;;;;;14.65;6.93;;;;;;;4.11;82.51;100454.31;5069686;28;20063;-92
2023/03/05 09:31:57;;;;;;;13.45;6.25;;;;;;;4.34;82.57;100496.69;5089157;28;20039;-92
2023/03/05 09:37:51;;;;;;;13.43;6.83;;;;;;;3.85;82.89;100399.81;5134197;22;20033;-94
2023/03/05 09:40:24;;;;;;;12.20;6.65;;;;;;;4.49;83.16;100498.13;5048277;28;20033;-93
2023/03/05 09:43:40;;;;;;;12.90;7.05;;;;;;;4.49;82.38;100493.75;5073569;28;20104;-94
2023/03/05 09:47:08;;;;;;;14.40;7.68;;;;;;;4.53;80.43;100490.19;5069951;28;20029;-93
2023/03/05 09:50:22;;;;;;;17.58;8.13;;;;;;;4.57;79.46;100481.31;5073800;28;20029;-93
2023/03/05 09:53:04;;;;;;;17.50;7.80;;;;;;;4.33;80.55;100421.56;5052432;28;20053;-94
2023/03/05 09:55:45;;;;;;;15.45;8.05;;;;;;;4.80;79.17;100478.22;5059844;28;20048;-91
2023/03/05 09:58:44;;;;;;;18.30;8.20;;;;;;;4.73;76.63;100434.66;5069407;28;20049;-92
2023/03/05 10:01:43;;;;;;;17.45;8.50;;;;;;;4.62;74.91;100383.34;5048658;28;20070;-92
2023/03/05 10:05:17;;;;;;;18.55;8.18;;;;;;;5.06;74.10;100467.13;5075110;28;20152;-96
2023/03/05 10:08:02;;;;;;;15.95;8.25;;;;;;;5.06;73.45;100467.13;5070359;28;20040;-94
2023/03/05 10:10:49;;;;;;;16.05;7.55;;;;;;;5.12;72.43;100463.50;5387376;22;20088;-94
2023/03/05 10:13:45;;;;;;;15.93;8.48;;;;;;;5.27;71.11;100458.75;5083797;28;20028;-95
2023/03/05 10:17:23;;;;;;;16.05;7.40;;;;;;;5.42;70.58;100452.25;5088585;28;20053;-93
2023/03/05 10:20:03;;;;;;;16.52;8.07;;;;;;;5.53;70.88;100459.84;5065380;28;20059;-93
2023/03/05 10:23:03;;;;;;;15.10;7.75;;;;;;;5.57;70.70;100459.75;5096474;28;20443;-93
2023/03/05 10:26:27;;;;;;;15.73;7.70;;;;;;;5.66;70.75;100449.94;5073343;28;20044;-94
2023/03/05 10:29:55;;;;;;;14.35;7.28;;;;;;;5.46;68.97;100440.78;5080259;28;20040;-93
2023/03/05 10:33:26;;;;;;;17.25;7.43;;;;;;;5.17;69.79;100401.28;5081891;28;20041;-93
2023/03/05 10:37:09;;;;;;;14.85;7.60;;;;;;;5.28;70.95;100431.59;5085564;28;20045;-93
2023/03/05 10:40:22;;;;;;;14.70;7.43;;;;;;;5.28;70.65;100434.22;5087390;28;20043;-93
2023/03/05 10:43:10;;;;;;;16.00;7.38;;;;;;;5.27;71.96;100432.50;5087634;28;20036;-94
2023/03/05 10:45:50;;;;;;;;;;;;;;;5.23;71.19;100430.84;5091284;28;20082;-92
2023/03/05 10:49:06;;;;;;;12.38;6.40;;;;;;;4.65;72.33;100364.91;5086201;28;19920;-92
2023/03/05 10:52:04;;;;;;;15.45;7.05;;;;;;;4.90;73.46;100415.91;5092572;28;20028;-93
2023/03/05 10:54:34;;;;;;;17.00;7.40;;;;;;;4.84;73.81;100426.56;5089520;28;20024;-93
2023/03/05 10:57:19;;;;;;;15.77;7.15;;;;;;;4.87;74.55;100431.75;5087691;28;20024;-94
2023/03/05 11:00:07;;;;;;;15.18;7.30;;;;;;;4.57;74.72;100394.78;5087489;28;20039;-94
2023/03/05 11:03:04;;;;;;;15.45;7.05;;;;;;;4.71;74.94;100415.50;5097900;28;20033;-94
2023/03/05 11:05:58;;;;;;;16.65;8.30;;;;;;;4.68;75.90;100425.19;5098354;28;20036;-94
2023/03/05 11:08:50;;;;;;;20.77;8.80;;;;;;;4.57;78.09;100425.38;5092519;28;20037;-93
2023/03/05 11:11:33;;;;;;;21.30;9.25;;;;;;;4.02;78.52;100331.38;5088741;28;20327;-93
2023/03/05 11:14:30;;;;;;;20.25;8.45;;;;;;;4.53;79.32;100415.88;5070543;28;20036;-93
2023/03/05 11:17:36;;;;;;;18.88;8.98;;;;;;;4.32;81.09;100390.13;5074105;28;20079;-92
2023/03/05 11:20:35;;;;;;;17.50;9.23;;;;;;;4.44;81.98;100416.94;5085285;28;20075;-92
2023/03/05 11:23:26;;;;;;;16.48;8.68;;;;;;;4.38;83.58;100427.56;5073613;28;20041;-92
2023/03/05 11:26:43;;;;;;;16.58;8.25;;;;;;;3.92;85.39;100350.81;5063761;28;20052;-94
2023/03/05 11:29:45;;;;;;;16.63;8.68;;;;;;;4.29;87.30;100417.25;5081116;28;20090;-92
2023/03/05 11:32:37;;;;;;;15.85;7.25;;;;;;;3.58;88.75;100298.25;5088971;28;20443;-94
2023/03/05 11:35:44;;;;;;;13.38;6.63;;;;;;;4.27;88.06;100399.84;5073481;28;20041;-93
2023/03/05 11:38:28;;;;;;;16.02;7.57;;;;;;;4.36;87.82;100397.91;5096625;28;20041;-92
2023/03/05 11:41:49;;;;;;;16.60;8.25;;;;;;;4.43;88.64;100394.22;5073553;28;20064;-92
2023/03/05 11:44:41;;;;;;;13.57;7.13;;;;;;;4.49;88.15;100377.50;5086570;28;20180;-94
2023/03/05 11:47:34;;;;;;;14.07;7.22;;;;;;;4.63;87.82;100369.31;5084324;28;20057;-93
2023/03/05 11:50:31;;;;;;;12.88;7.18;;;;;;;4.67;84.88;100358.75;5074426;28;20041;-94
2023/03/05 11:53:31;;;;;;;17.63;7.88;;;;;;;4.51;84.65;100329.38;5095999;28;20029;-94
2023/03/05 11:56:30;;;;;;;16.48;7.05;;;;;;;4.61;85.23;100322.16;5093375;28;20111;-93
2023/03/05 11:59:28;;;;;;;17.23;7.28;;;;;;;4.62;84.06;100295.03;5098504;28;20024;-92
2023/03/05 12:02:02;;;;;;;14.80;7.32;;;;;;;4.98;83.71;100316.88;5072651;28;20036;-93
2023/03/05 12:04:58;;;;;;;20.58;8.68;;;;;;;5.40;81.79;100349.00;5089254;28;20060;-93
2023/03/05 12:08:05;;;;;;;14.85;7.63;;;;;;;5.52;79.31;100337.31;5079659;28;20541;-93
2023/03/05 12:10:48;;;;;;;14.85;7.53;;;;;;;5.38;79.59;100289.56;5089574;28;20036;-93
2023/03/05 12:17:33;;;;;;;15.07;7.00;;;;;;;6.07;73.72;100314.75;5082130;28;20043;-92
2023/03/05 12:20:47;;;;;;;12.57;7.38;;;;;;;5.98;72.50;100263.34;5071848;28;20097;-92
2023/03/05 12:24:02;;;;;;;16.98;6.95;;;;;;;6.30;71.23;100304.41;5064100;28;20120;-94
2023/03/05 12:27:22;;;;;;;10.95;5.80;;;;;;;6.32;69.35;100289.44;5085687;28;20041;-93
2023/03/05 12:31:02;;;;;;;13.05;6.43;;;;;;;6.14;68.77;100300.53;5082677;28;20051;-93
2023/03/05 12:34:40;;;;;;;11.63;6.22;;;;;;;5.86;69.48;100290.78;5084026;28;20075;-93
2023/03/05 12:38:33;;;;;;;11.50;5.65;;;;;;;5.80;69.63;100296.25;5086378;28;20040;-93
2023/03/05 12:41:28;;;;;;;9.50;5.30;;;;;;;5.81;68.86;100266.44;4946653;28;20038;-93
2023/03/05 12:44:18;;;;;;;11.65;6.15;;;;;;;5.86;66.38;100282.91;5088680;28;20024;-94
2023/03/05 12:47:22;;;;;;;12.82;5.93;;;;;;;5.87;67.37;100276.75;5065988;28;20048;-94
2023/03/05 12:50:08;;;;;;;13.13;5.90;;;;;;;5.93;67.56;100276.63;5070236;28;20417;-92
2023/03/05 12:53:00;;;;;;;11.32;5.68;;;;;;;5.94;68.44;100275.72;5082591;28;20094;-93
2023/03/05 12:55:55;;;;;;;9.80;5.13;;;;;;;6.02;66.47;100271.97;5059606;28;20072;-93
2023/03/05 12:58:44;;;;;;;10.15;4.93;;;;;;;5.87;65.51;100229.44;5071795;28;20063;-93
2023/03/05 13:01:46;;;;;;;9.07;5.20;;;;;;;6.18;65.11;100257.44;5078191;28;20044;-94
2023/03/05 13:04:33;;;;;;;13.80;5.00;;;;;;;6.08;64.81;100249.00;5066728;28;20448;-93
2023/03/05 13:07:18;;;;;;;10.02;5.28;;;;;;;6.12;65.41;100257.66;5068879;28;20032;-93
2023/03/05 13:10:27;;;;;;;10.68;4.57;;;;;;;6.13;65.25;100249.72;5080893;28;20066;-93
2023/03/05 13:16:46;;;;;;;8.63;4.70;;;;;;;6.20;64.41;100243.34;5065055;28;20092;-93
2023/03/05 13:26:21;;;;;;;9.10;4.75;;;;;;;5.96;65.79;100244.13;5844913;23;20040;-93
2023/03/05 13:29:31;;;;;;;11.13;4.43;;;;;;;5.96;63.15;100236.25;5355718;23;20154;-93
2023/03/05 13:32:39;;;;;;;5.80;3.03;;;;;;;5.96;61.56;100229.22;5061534;28;20044;-94
2023/03/05 13:36:12;;;;;;;5.85;2.58;;;;;;;5.94;60.44;100224.91;5061332;28;20041;-96
2023/03/05 13:40:05;;;;;;;5.10;2.55;;;;;;;5.31;61.07;100102.47;4994725;28;20189;-94
2023/03/05 13:43:33;;;;;;;5.03;3.00;;;;;;;5.87;60.18;100215.44;5071741;28;20068;-93
2023/03/05 13:47:18;;;;;;;6.90;3.40;;;;;;;5.45;63.09;100155.44;5068443;28;20040;-93
2023/03/05 13:50:08;;;;;;;9.20;3.22;;;;;;;5.72;63.30;100208.03;5073106;28;20044;-93
2023/03/05 13:53:17;;;;;;;5.13;3.00;;;;;;;5.65;63.75;100212.63;5149689;22;20037;-93